地図

経路データ

SID SEASON NUMBER BASIN SUBBASIN NAME ISO_TIME NATURE LAT LON WMO_WIND WMO_PRES WMO_AGENCY TRACK_TYPE DIST2LAND LANDFALL IFLAG USA_AGENCY USA_ATCF_ID USA_LAT USA_LON USA_RECORD USA_STATUS USA_WIND USA_PRES USA_SSHS USA_R34_NE USA_R34_SE USA_R34_SW USA_R34_NW USA_R50_NE USA_R50_SE USA_R50_SW USA_R50_NW USA_R64_NE USA_R64_SE USA_R64_SW USA_R64_NW USA_POCI USA_ROCI USA_RMW USA_EYE TOKYO_LAT TOKYO_LON TOKYO_GRADE TOKYO_WIND TOKYO_PRES TOKYO_R50_DIR TOKYO_R50_LONG TOKYO_R50_SHORT TOKYO_R30_DIR TOKYO_R30_LONG TOKYO_R30_SHORT TOKYO_LAND CMA_LAT CMA_LON CMA_CAT CMA_WIND CMA_PRES HKO_LAT HKO_LON HKO_CAT HKO_WIND HKO_PRES NEWDELHI_LAT NEWDELHI_LON NEWDELHI_GRADE NEWDELHI_WIND NEWDELHI_PRES NEWDELHI_CI NEWDELHI_DP NEWDELHI_POCI REUNION_LAT REUNION_LON REUNION_TYPE REUNION_WIND REUNION_PRES REUNION_TNUM REUNION_CI REUNION_RMW REUNION_R34_NE REUNION_R34_SE REUNION_R34_SW REUNION_R34_NW REUNION_R50_NE REUNION_R50_SE REUNION_R50_SW REUNION_R50_NW REUNION_R64_NE REUNION_R64_SE REUNION_R64_SW REUNION_R64_NW BOM_LAT BOM_LON BOM_TYPE BOM_WIND BOM_PRES BOM_TNUM BOM_CI BOM_RMW BOM_R34_NE BOM_R34_SE BOM_R34_SW BOM_R34_NW BOM_R50_NE BOM_R50_SE BOM_R50_SW BOM_R50_NW BOM_R64_NE BOM_R64_SE BOM_R64_SW BOM_R64_NW BOM_ROCI BOM_POCI BOM_EYE BOM_POS_METHOD BOM_PRES_METHOD NADI_LAT NADI_LON NADI_CAT NADI_WIND NADI_PRES WELLINGTON_LAT WELLINGTON_LON WELLINGTON_WIND WELLINGTON_PRES DS824_LAT DS824_LON DS824_STAGE DS824_WIND DS824_PRES TD9636_LAT TD9636_LON TD9636_STAGE TD9636_WIND TD9636_PRES TD9635_LAT TD9635_LON TD9635_WIND TD9635_PRES TD9635_ROCI NEUMANN_LAT NEUMANN_LON NEUMANN_CLASS NEUMANN_WIND NEUMANN_PRES MLC_LAT MLC_LON MLC_CLASS MLC_WIND MLC_PRES USA_GUST BOM_GUST BOM_GUST_PER REUNION_GUST REUNION_GUST_PER USA_SEAHGT USA_SEARAD_NE USA_SEARAD_SE USA_SEARAD_SW USA_SEARAD_NW STORM_SPEED STORM_DIR
1999155N15117 1999 35 WP MM NOT_NAMED 1999-06-03 12:00:00 TS 14.5000 116.500 main 379 379 __O___________ -1 14.5000 116.500 1 23 1000 2 295
1999155N15117 1999 35 WP MM NOT_NAMED 1999-06-03 15:00:00 TS 14.5450 116.397 main 389 386 __P___________ -1 14.5450 116.397 1 23 1000 2 297
1999155N15117 1999 35 WP MM NOT_NAMED 1999-06-03 18:00:00 TS 14.6000 116.300 main 397 397 __O___________ -1 14.6000 116.300 1 23 1000 2 301
1999155N15117 1999 35 WP MM NOT_NAMED 1999-06-03 21:00:00 TS 14.6649 116.195 main 402 402 __P___________ -1 14.6649 116.195 1 23 1000 3 289
1999155N15117 1999 35 WP MM NOT_NAMED 1999-06-04 00:00:00 TS 14.7000 116.000 main 422 422 __O___________ -1 14.7000 116.000 1 23 1000 6 270
1999155N15117 1999 35 WP MM NOT_NAMED 1999-06-04 03:00:00 TS 14.6652 115.622 main 463 463 __P___________ -1 14.6652 115.622 1 26 1000 8 263
1999155N15117 1999 35 WP MM NOT_NAMED 1999-06-04 06:00:00 TS 14.6000 115.200 main 507 507 __O___________ -1 14.6000 115.200 1 29 1000 7 262
1999155N15117 1999 35 WP MM NOT_NAMED 1999-06-04 09:00:00 TS 14.5649 114.870 main 538 538 __P___________ -1 14.5649 114.870 1 29 1000 6 260
1999155N15117 1999 35 WP MM NOT_NAMED 1999-06-04 12:00:00 TS 14.5000 114.600 main 572 552 __O___________ -1 14.5000 114.600 1 29 1000 5 244
1999155N15117 1999 35 WP MM NOT_NAMED 1999-06-04 15:00:00 TS 14.3349 114.385 main 552 528 __P___________ -1 14.3349 114.385 1 29 1000 5 232
1999155N15117 1999 35 WP MM NOT_NAMED 1999-06-04 18:00:00 TS 14.2000 114.200 main 528 508 __O___________ -1 14.2000 114.200 1 29 1000 4 255
1999155N15117 1999 35 WP MM NOT_NAMED 1999-06-04 21:00:00 TS 14.2200 113.955 main 508 487 __P___________ -1 14.2200 113.955 1 29 1000 4 284
1999155N15117 1999 35 WP MM NOT_NAMED 1999-06-05 00:00:00 TS 14.3000 113.800 main 487 487 __O___________ -1 14.3000 113.800 1 29 1000 2 319
1999155N15117 1999 35 WP MM NOT_NAMED 1999-06-05 03:00:00 TS 14.3500 113.840 main 487 487 __P___________ -1 14.3500 113.840 1 29 997 2 63
1999155N15117 1999 35 WP MM NOT_NAMED 1999-06-05 06:00:00 TS 14.4000 114.000 main 510 510 __O___________ -1 14.4000 114.000 1 29 995 3 75
1999155N15117 1999 35 WP MM NOT_NAMED 1999-06-05 09:00:00 TS 14.4349 114.155 main 531 531 __P___________ -1 14.4349 114.155 1 29 995 4 76
1999155N15117 1999 35 WP MM NOT_NAMED 1999-06-05 12:00:00 TS 14.5000 114.400 main 554 554 __O___________ -1 14.5000 114.400 1 29 995 6 74
1999155N15117 1999 35 WP MM NOT_NAMED 1999-06-05 15:00:00 TS 14.6051 114.770 main 548 500 __P___________ -1 14.6051 114.770 1 29 995 8 69
1999155N15117 1999 35 WP MM NOT_NAMED 1999-06-05 18:00:00 TS 14.8000 115.200 main 500 450 __O___________ -1 14.8000 115.200 1 29 995 10 58
1999155N15117 1999 35 WP MM NOT_NAMED 1999-06-05 21:00:00 TS 15.1351 115.645 main 450 400 __P___________ -1 15.1351 115.645 1 29 995 10 48
1999155N15117 1999 35 WP MM NOT_NAMED 1999-06-06 00:00:00 TS 15.5000 116.000 main 400 375 __O___________ -1 15.5000 116.000 1 29 995 8 38
1999155N15117 1999 35 WP MM NOT_NAMED 1999-06-06 03:00:00 TS 15.7799 116.160 main 375 374 __P___________ -1 15.7799 116.160 1 26 997 5 21
1999155N15117 1999 35 WP MM NOT_NAMED 1999-06-06 06:00:00 TS 16.0000 116.200 main 374 __O___________ -1 16.0000 116.200 1 23 1000 4 10

デジタル台風データ・検索

IBTrACS Databaseについて

本データベースは、米国NOAAが公開する1842年以降の世界の熱帯低気圧のベストトラックデータアーカイブInternational Best Track Archive for Climate Stewardship (IBTrACS)を、ウェブで閲覧しやすい形式に変換したものです。

最終更新日:2021-10-21